createdAt,value
2023-01-01T00:00:38.931Z,82.53
2023-01-01T00:01:42.812Z,84.45
2023-01-01T00:02:46.144Z,62.90
2023-01-01T00:03:55.936Z,68.93
2023-01-01T00:04:59.227Z,65.00
2023-01-01T00:06:09.460Z,73.23
2023-01-01T00:07:12.661Z,85.50
2023-01-01T00:08:15.766Z,72.90
2023-01-01T00:09:37.479Z,64.95
2023-01-01T00:10:40.239Z,70.68
2023-01-01T00:11:42.901Z,89.95
2023-01-01T00:12:46.353Z,64.32
2023-01-01T00:13:49.980Z,67.53
2023-01-01T00:14:52.795Z,62.65
2023-01-01T00:15:55.905Z,67.05
2023-01-01T00:16:58.744Z,75.07
2023-01-01T00:18:01.801Z,67.33
2023-01-01T00:19:05.484Z,69.85
2023-01-01T00:20:08.588Z,55.10
2023-01-01T00:21:14.810Z,64.45
2023-01-01T00:22:52.887Z,60.90
2023-01-01T00:23:41.550Z,70.15
2023-01-01T00:24:44.600Z,71.12
2023-01-01T00:25:47.334Z,62.15
2023-01-01T00:26:50.123Z,70.62
2023-01-01T00:27:53.621Z,77.20
2023-01-01T00:28:56.636Z,57.37
2023-01-01T00:29:59.492Z,53.45
2023-01-01T00:31:19.717Z,91.12
2023-01-01T00:32:23.183Z,66.95
2023-01-01T00:33:26.121Z,85.43
2023-01-01T00:34:29.606Z,62.53
2023-01-01T00:35:33.913Z,69.40
2023-01-01T00:36:37.300Z,63.97
2023-01-01T00:37:46.415Z,80.28
2023-01-01T00:38:49.824Z,56.67
2023-01-01T00:39:53.600Z,64.40
2023-01-01T00:40:56.307Z,53.40
2023-01-01T00:41:59.698Z,57.17
2023-01-01T00:43:02.504Z,57.20
2023-01-01T00:44:05.359Z,59.90
2023-01-01T00:45:09.392Z,59.95
2023-01-01T00:46:13.020Z,49.50
2023-01-01T00:47:15.915Z,46.35
2023-01-01T00:48:19.795Z,51.35
2023-01-01T00:49:22.857Z,48.20
2023-01-01T00:50:26.576Z,53.60
2023-01-01T00:51:34.876Z,66.47
2023-01-01T00:52:40.071Z,43.42
2023-01-01T00:53:42.866Z,60.70
2023-01-01T00:54:45.649Z,57.88
2023-01-01T00:55:51.166Z,75.32
2023-01-01T00:56:53.970Z,39.92
2023-01-01T00:57:56.841Z,54.38
2023-01-01T00:59:00.737Z,37.28
2023-01-01T01:00:05.971Z,49.30
2023-01-01T01:01:11.981Z,38.03
2023-01-01T01:02:15.118Z,39.38
2023-01-01T01:03:31.174Z,41.05
2023-01-01T01:04:33.924Z,46.45
2023-01-01T01:05:39.005Z,52.83
2023-01-01T01:06:42.503Z,49.00
2023-01-01T01:07:45.183Z,55.10
2023-01-01T01:08:48.411Z,47.58
2023-01-01T01:09:51.173Z,48.80
2023-01-01T01:10:54.773Z,65.40
2023-01-01T01:12:17.268Z,82.63
2023-01-01T01:13:21.113Z,91.82
2023-01-01T01:14:23.863Z,87.22
2023-01-01T01:15:26.581Z,82.47
2023-01-01T01:16:34.629Z,57.62
2023-01-01T01:17:38.647Z,67.43
2023-01-01T01:18:41.950Z,72.25
2023-01-01T01:19:46.374Z,55.03
2023-01-01T01:20:53.963Z,44.80
2023-01-01T01:21:56.970Z,54.90
2023-01-01T01:23:00.131Z,74.00
2023-01-01T01:24:04.130Z,103.65
2023-01-01T01:25:07.516Z,87.65
2023-01-01T01:26:13.569Z,72.15
2023-01-01T01:27:17.491Z,78.85
2023-01-01T01:28:22.716Z,75.05
2023-01-01T01:29:25.775Z,66.18
2023-01-01T01:30:28.543Z,47.45
2023-01-01T01:31:32.609Z,99.57
2023-01-01T01:32:35.643Z,68.13
2023-01-01T01:33:38.941Z,92.40
2023-01-01T01:34:41.837Z,90.28
2023-01-01T01:35:52.101Z,82.37
2023-01-01T01:36:54.947Z,89.62
2023-01-01T01:37:58.180Z,71.65
2023-01-01T01:39:01.419Z,67.65
2023-01-01T01:40:05.513Z,74.03
2023-01-01T01:41:08.834Z,132.63
2023-01-01T01:42:18.538Z,59.92
2023-01-01T01:43:46.907Z,55.23
2023-01-01T01:44:57.202Z,48.13
2023-01-01T01:46:12.698Z,43.70
2023-01-01T01:47:32.092Z,60.90
2023-01-01T01:48:41.200Z,53.25
2023-01-01T01:49:45.479Z,53.75
2023-01-01T01:50:50.250Z,73.57
2023-01-01T01:51:54.163Z,55.47
2023-01-01T01:53:08.717Z,46.70
2023-01-01T01:54:17.505Z,51.00
2023-01-01T01:55:20.846Z,52.93
2023-01-01T01:56:59.971Z,36.87
2023-01-01T01:58:04.727Z,45.55
2023-01-01T01:59:07.682Z,52.35
2023-01-01T02:00:12.115Z,40.17
2023-01-01T02:01:15.849Z,41.08
2023-01-01T02:02:48.404Z,60.47
2023-01-01T02:04:00.115Z,57.53
2023-01-01T02:05:04.255Z,48.45
2023-01-01T02:06:07.112Z,59.63
2023-01-01T02:07:13.852Z,69.60
2023-01-01T02:08:16.928Z,58.23
2023-01-01T02:09:21.116Z,57.20
2023-01-01T02:10:23.890Z,82.75
2023-01-01T02:11:26.674Z,68.93
2023-01-01T02:12:30.038Z,62.67
2023-01-01T02:13:33.070Z,73.03
2023-01-01T02:14:35.779Z,47.85
2023-01-01T02:15:48.607Z,60.85
2023-01-01T02:17:00.683Z,47.78
2023-01-01T02:18:12.035Z,57.73
2023-01-01T02:19:41.940Z,38.67
2023-01-01T02:22:47.004Z,38.00
2023-01-01T02:24:27.305Z,34.45
2023-01-01T02:25:52.388Z,35.45
2023-01-01T02:27:01.398Z,37.70
2023-01-01T02:28:24.098Z,57.35
2023-01-01T02:29:36.121Z,120.50
2023-01-01T02:30:41.862Z,61.15
2023-01-01T02:32:09.910Z,60.73
2023-01-01T02:33:18.398Z,46.13
2023-01-01T02:34:25.409Z,48.95
2023-01-01T02:35:38.871Z,41.35
2023-01-01T02:36:48.757Z,37.45
2023-01-01T02:37:58.100Z,39.22
2023-01-01T02:39:04.281Z,41.60
2023-01-01T02:40:08.104Z,42.05
2023-01-01T02:41:16.080Z,39.97
2023-01-01T02:42:19.873Z,38.85
2023-01-01T02:43:24.983Z,39.93
2023-01-01T02:44:32.352Z,34.30
2023-01-01T02:45:35.961Z,41.75
2023-01-01T02:46:39.386Z,48.50
2023-01-01T02:47:42.217Z,44.85
2023-01-01T02:48:47.420Z,60.55
2023-01-01T02:50:00.009Z,57.13
2023-01-01T02:51:09.747Z,50.22
2023-01-01T02:52:42.896Z,64.18
2023-01-01T02:54:13.091Z,46.97
2023-01-01T02:55:32.703Z,58.20
2023-01-01T02:56:46.234Z,54.60
2023-01-01T02:58:31.584Z,43.15
2023-01-01T03:00:15.003Z,43.30
2023-01-01T03:01:35.220Z,58.13
2023-01-01T03:03:14.110Z,53.08
2023-01-01T03:05:05.289Z,54.80
2023-01-01T03:06:28.173Z,51.17
2023-01-01T03:07:56.238Z,64.55
2023-01-01T03:09:12.760Z,39.60
2023-01-01T03:10:23.234Z,60.77
2023-01-01T03:11:32.928Z,69.00
2023-01-01T03:13:07.103Z,47.62
2023-01-01T03:14:28.077Z,84.75
2023-01-01T03:16:04.771Z,57.50
2023-01-01T03:17:27.530Z,68.85
2023-01-01T03:39:06.377Z,67.70
2023-01-01T03:40:10.793Z,86.20
2023-01-01T03:56:52.770Z,57.15
2023-01-01T03:58:10.606Z,76.05
2023-01-01T03:59:31.207Z,53.95
2023-01-01T04:00:38.153Z,66.68
2023-01-01T04:01:45.300Z,65.28
2023-01-01T04:03:04.425Z,79.03
2023-01-01T04:04:08.111Z,70.50
2023-01-01T04:05:12.472Z,62.88
2023-01-01T04:06:16.208Z,99.53
2023-01-01T04:07:20.616Z,91.22
2023-01-01T04:08:23.673Z,91.40
2023-01-01T04:09:31.562Z,113.60
2023-01-01T04:10:38.594Z,82.55
2023-01-01T04:12:04.246Z,69.32
2023-01-01T04:13:07.694Z,74.75
2023-01-01T04:14:10.441Z,101.00
2023-01-01T04:15:14.129Z,62.53
2023-01-01T04:16:16.966Z,62.83
2023-01-01T04:17:19.768Z,91.07
2023-01-01T04:18:23.179Z,86.82
2023-01-01T04:19:26.141Z,79.93
2023-01-01T04:20:29.000Z,95.12
2023-01-01T04:21:32.753Z,121.10
2023-01-01T04:22:35.952Z,114.93
2023-01-01T04:23:39.027Z,117.03
2023-01-01T04:24:42.492Z,84.50
2023-01-01T04:25:45.235Z,98.70
2023-01-01T04:26:48.776Z,103.22
2023-01-01T04:27:51.601Z,60.05
2023-01-01T04:28:55.083Z,73.03
2023-01-01T04:29:57.820Z,91.32
2023-01-01T04:31:03.020Z,57.92
2023-01-01T04:32:06.160Z,117.00
2023-01-01T04:33:08.895Z,76.25
2023-01-01T04:34:12.089Z,63.55
2023-01-01T04:35:15.196Z,59.73
2023-01-01T04:36:18.003Z,70.67
2023-01-01T04:37:20.782Z,84.15
2023-01-01T04:38:24.025Z,104.65
2023-01-01T04:39:27.019Z,100.50
2023-01-01T04:40:29.726Z,99.37
2023-01-01T04:41:33.285Z,66.80
2023-01-01T04:42:35.993Z,66.80
2023-01-01T04:43:38.736Z,87.70
2023-01-01T04:44:42.245Z,53.63
2023-01-01T04:45:45.067Z,48.67
2023-01-01T04:46:48.205Z,57.77
2023-01-01T04:47:51.095Z,55.65
2023-01-01T04:48:54.112Z,39.35
2023-01-01T04:49:57.160Z,41.95
2023-01-01T04:51:02.190Z,42.62
2023-01-01T04:52:05.678Z,41.67
2023-01-01T04:53:08.439Z,49.03
2023-01-01T04:54:11.204Z,53.92
2023-01-01T04:55:14.877Z,49.33
2023-01-01T04:56:20.448Z,51.03
2023-01-01T04:57:23.430Z,55.43
2023-01-01T04:58:26.763Z,48.03
2023-01-01T04:59:31.026Z,47.80
2023-01-01T05:00:34.014Z,64.22
2023-01-01T05:01:36.893Z,47.47
2023-01-01T05:02:40.312Z,49.97
2023-01-01T05:03:43.191Z,52.42
2023-01-01T05:04:46.017Z,49.63
2023-01-01T05:06:02.787Z,41.88
2023-01-01T05:07:05.680Z,37.57
2023-01-01T05:08:08.447Z,38.72
2023-01-01T05:09:12.084Z,37.13
2023-01-01T05:10:15.464Z,34.47
2023-01-01T05:11:24.010Z,35.90
2023-01-01T05:12:26.757Z,37.30
2023-01-01T05:13:30.378Z,36.78
2023-01-01T05:14:33.986Z,38.05
2023-01-01T05:15:37.493Z,37.55
2023-01-01T05:16:41.207Z,33.58
2023-01-01T05:17:44.218Z,33.33
2023-01-01T05:18:47.567Z,34.33
2023-01-01T05:19:50.867Z,36.28
2023-01-01T05:20:53.630Z,39.22
2023-01-01T05:21:57.241Z,44.30
2023-01-01T05:23:00.039Z,72.65
2023-01-01T05:24:06.934Z,69.28
2023-01-01T05:25:10.120Z,67.10
2023-01-01T05:26:16.156Z,53.60
2023-01-01T05:27:19.939Z,56.10
2023-01-01T05:28:24.114Z,69.90
2023-01-01T05:29:27.172Z,123.72
2023-01-01T05:30:30.883Z,123.32
2023-01-01T05:31:36.465Z,72.78
2023-01-01T05:32:39.829Z,109.22
2023-01-01T05:33:43.149Z,171.80
2023-01-01T05:34:46.878Z,87.55
2023-01-01T05:35:55.333Z,111.50
2023-01-01T05:36:58.852Z,108.65
2023-01-01T05:38:04.156Z,95.70
2023-01-01T05:39:10.109Z,92.07
2023-01-01T05:40:13.251Z,130.23
2023-01-01T05:41:17.434Z,128.23
2023-01-01T05:42:20.560Z,248.87
2023-01-01T05:43:24.372Z,232.57
2023-01-01T05:44:27.105Z,163.70
2023-01-01T05:45:29.824Z,117.75
2023-01-01T05:46:33.021Z,94.20
2023-01-01T05:47:35.827Z,167.27
2023-01-01T05:48:39.370Z,171.95
2023-01-01T05:49:42.156Z,97.17
2023-01-01T05:50:48.364Z,66.83
2023-01-01T05:51:52.110Z,101.60
2023-01-01T05:52:55.517Z,102.62
2023-01-01T05:53:59.216Z,115.35
2023-01-01T05:55:03.038Z,98.25
2023-01-01T05:56:07.531Z,77.68
2023-01-01T05:57:10.918Z,84.87
2023-01-01T05:58:13.767Z,69.87
2023-01-01T05:59:16.765Z,76.25
2023-01-01T06:00:19.839Z,83.27
2023-01-01T06:01:26.307Z,79.68
2023-01-01T06:02:31.612Z,89.35
2023-01-01T06:03:35.529Z,133.85
2023-01-01T06:04:38.371Z,172.75
2023-01-01T06:05:41.575Z,157.30
2023-01-01T06:06:44.598Z,157.65
2023-01-01T06:07:48.753Z,109.32
2023-01-01T06:08:54.430Z,63.17
2023-01-01T06:09:57.483Z,72.40
2023-01-01T06:11:05.377Z,61.77
2023-01-01T06:12:08.485Z,50.70
2023-01-01T06:13:13.572Z,37.85
2023-01-01T06:14:16.459Z,46.37
2023-01-01T06:15:19.135Z,41.10
2023-01-01T06:16:22.984Z,45.47
2023-01-01T06:17:26.098Z,34.60
2023-01-01T06:18:34.197Z,30.42
2023-01-01T06:19:37.237Z,37.38
2023-01-01T06:20:40.500Z,30.12
2023-01-01T06:21:43.216Z,33.20
2023-01-01T06:22:46.355Z,30.40
2023-01-01T06:23:49.891Z,30.12
2023-01-01T06:24:52.613Z,29.67
2023-01-01T06:25:56.540Z,32.55
2023-01-01T06:26:59.424Z,30.02
2023-01-01T06:28:02.834Z,33.83
2023-01-01T06:29:05.933Z,34.85
2023-01-01T06:30:10.043Z,30.77
2023-01-01T06:31:15.672Z,35.45
2023-01-01T06:32:18.714Z,30.97
2023-01-01T06:33:21.703Z,42.88
2023-01-01T06:34:25.287Z,34.70
2023-01-01T06:35:28.735Z,35.35
2023-01-01T06:36:31.862Z,38.05
2023-01-01T06:37:34.703Z,42.05
2023-01-01T06:38:41.093Z,44.40
2023-01-01T06:39:43.888Z,37.47
2023-01-01T06:41:00.848Z,35.58
2023-01-01T06:42:03.777Z,37.85
2023-01-01T06:43:06.547Z,38.40
2023-01-01T06:44:09.909Z,37.55
2023-01-01T06:45:13.436Z,38.60
2023-01-01T06:46:19.219Z,37.58
2023-01-01T06:47:22.087Z,36.78
2023-01-01T06:48:25.177Z,39.65
2023-01-01T06:49:28.262Z,41.35
2023-01-01T06:50:31.422Z,37.88
2023-01-01T06:51:39.838Z,39.45
2023-01-01T06:52:42.921Z,43.78
2023-01-01T06:53:46.468Z,61.53
2023-01-01T06:54:49.826Z,51.05
2023-01-01T06:55:57.375Z,45.08
2023-01-01T06:57:00.392Z,62.72
2023-01-01T06:58:03.117Z,57.55
2023-01-01T06:59:06.544Z,72.20
2023-01-01T07:00:10.357Z,71.47
2023-01-01T07:01:19.238Z,65.90
2023-01-01T07:02:22.339Z,74.70
2023-01-01T07:03:25.318Z,66.28
2023-01-01T07:04:28.103Z,71.83
2023-01-01T07:05:31.544Z,75.72
2023-01-01T07:06:35.518Z,51.80
2023-01-01T07:07:38.441Z,50.33
2023-01-01T07:08:41.254Z,55.95
2023-01-01T07:09:43.978Z,57.53
2023-01-01T07:10:46.994Z,62.10
2023-01-01T07:11:50.500Z,77.43
2023-01-01T07:12:53.185Z,64.32
2023-01-01T07:13:56.058Z,68.70
2023-01-01T07:14:59.272Z,64.00
2023-01-01T07:16:08.370Z,68.37
2023-01-01T07:17:15.630Z,106.00
2023-01-01T07:18:19.663Z,111.68
2023-01-01T07:19:22.819Z,110.55
2023-01-01T07:20:25.464Z,112.28
2023-01-01T07:21:31.250Z,98.18
2023-01-01T07:22:35.913Z,91.93
2023-01-01T07:23:38.756Z,102.70
2023-01-01T07:24:42.048Z,92.68
2023-01-01T07:25:44.920Z,90.87
2023-01-01T07:26:49.183Z,111.17
2023-01-01T07:27:51.897Z,103.75
2023-01-01T07:28:55.715Z,120.95
2023-01-01T07:30:01.493Z,138.50
2023-01-01T07:31:04.467Z,211.05
2023-01-01T07:32:13.204Z,136.82
2023-01-01T07:33:19.776Z,84.05
2023-01-01T07:34:23.969Z,67.28
2023-01-01T07:35:26.755Z,67.37
2023-01-01T07:36:30.138Z,65.47
2023-01-01T07:37:33.306Z,102.77
2023-01-01T07:38:36.507Z,97.12
2023-01-01T07:39:39.806Z,111.85
2023-01-01T07:40:43.158Z,99.15
2023-01-01T07:41:45.993Z,89.62
2023-01-01T07:42:49.372Z,86.22
2023-01-01T07:43:52.491Z,63.25
2023-01-01T07:44:55.194Z,70.10
2023-01-01T07:45:59.172Z,84.78
2023-01-01T07:47:04.926Z,99.47
2023-01-01T07:48:13.685Z,167.60
2023-01-01T07:49:17.301Z,127.97
2023-01-01T07:50:21.897Z,108.70
2023-01-01T07:51:25.139Z,130.57
2023-01-01T07:52:28.621Z,128.95
2023-01-01T07:53:31.666Z,132.52
2023-01-01T07:54:34.836Z,106.80
2023-01-01T07:55:37.856Z,80.12
2023-01-01T07:56:40.703Z,89.25
2023-01-01T07:57:44.401Z,77.47
2023-01-01T07:58:47.436Z,62.47
2023-01-01T07:59:50.296Z,51.22
2023-01-01T08:00:53.303Z,52.85
2023-01-01T08:01:56.844Z,76.35
2023-01-01T08:03:00.015Z,61.13
2023-01-01T08:04:03.862Z,67.28
2023-01-01T08:05:07.189Z,59.30
2023-01-01T08:06:12.228Z,69.72
2023-01-01T08:07:15.788Z,66.28
2023-01-01T08:08:18.491Z,69.07
2023-01-01T08:09:21.987Z,68.53
2023-01-01T08:10:24.819Z,63.10
2023-01-01T08:11:28.693Z,61.30
2023-01-01T08:12:31.937Z,58.33
2023-01-01T08:13:35.230Z,47.40
2023-01-01T08:14:37.983Z,47.30
2023-01-01T08:15:41.192Z,51.75
2023-01-01T08:16:44.043Z,48.80
2023-01-01T08:17:48.343Z,51.50
2023-01-01T08:18:51.171Z,50.47
2023-01-01T08:19:54.345Z,56.23
2023-01-01T08:20:57.689Z,79.25
2023-01-01T08:22:00.812Z,83.07
2023-01-01T08:23:07.433Z,94.82
2023-01-01T08:24:11.082Z,103.15
2023-01-01T08:25:14.544Z,109.37
2023-01-01T08:26:26.682Z,130.45
2023-01-01T08:27:30.000Z,146.95
2023-01-01T08:28:33.674Z,123.60
2023-01-01T08:29:37.066Z,130.60
2023-01-01T08:30:41.046Z,115.50
2023-01-01T08:31:44.623Z,119.43
2023-01-01T08:32:49.359Z,120.60
2023-01-01T08:33:53.097Z,132.12
2023-01-01T08:34:56.632Z,158.60
2023-01-01T08:36:00.166Z,134.87
2023-01-01T08:37:03.734Z,134.87
2023-01-01T08:38:06.482Z,138.62
2023-01-01T08:39:10.101Z,146.07
2023-01-01T08:40:13.843Z,101.50
2023-01-01T08:41:17.706Z,85.00
2023-01-01T08:42:20.820Z,95.90
2023-01-01T08:43:23.626Z,92.40
2023-01-01T08:44:26.617Z,68.40
2023-01-01T08:45:29.994Z,71.85
2023-01-01T08:46:33.687Z,55.00
2023-01-01T08:47:36.979Z,52.72
2023-01-01T08:48:41.228Z,61.80
2023-01-01T08:49:45.151Z,49.00
2023-01-01T08:51:00.321Z,48.20
2023-01-01T08:52:03.652Z,51.90
2023-01-01T08:53:07.154Z,59.75
2023-01-01T08:54:10.902Z,57.15
2023-01-01T08:55:13.907Z,48.00
2023-01-01T08:56:17.028Z,49.58
2023-01-01T08:57:22.956Z,53.10
2023-01-01T08:58:26.615Z,83.75
2023-01-01T08:59:29.446Z,57.58
2023-01-01T09:00:32.901Z,53.45
2023-01-01T09:01:35.731Z,82.63
2023-01-01T09:02:38.713Z,71.30
2023-01-01T09:03:41.828Z,67.37
2023-01-01T09:04:44.680Z,60.40
2023-01-01T09:05:47.847Z,58.35
2023-01-01T09:06:51.063Z,60.47
2023-01-01T09:07:53.796Z,54.58
2023-01-01T09:08:57.769Z,58.45
2023-01-01T09:10:00.548Z,57.10
2023-01-01T09:11:04.443Z,51.95
2023-01-01T09:12:09.294Z,53.33
2023-01-01T09:13:13.124Z,50.80
2023-01-01T09:14:15.898Z,54.25
2023-01-01T09:15:18.685Z,50.33
2023-01-01T09:16:23.087Z,53.97
2023-01-01T09:17:26.123Z,50.00
2023-01-01T09:18:28.929Z,48.78
2023-01-01T09:19:31.749Z,50.53
2023-01-01T09:20:34.726Z,49.40
2023-01-01T09:21:37.968Z,51.20
2023-01-01T09:22:40.729Z,51.10
2023-01-01T09:23:43.621Z,53.63
2023-01-01T09:24:46.301Z,48.00
2023-01-01T09:25:49.058Z,50.97
2023-01-01T09:26:52.129Z,48.40
2023-01-01T09:28:01.775Z,45.90
2023-01-01T09:29:04.635Z,48.40
2023-01-01T09:30:08.485Z,51.65
2023-01-01T09:31:12.756Z,50.05
2023-01-01T09:32:15.868Z,45.88
2023-01-01T09:33:18.745Z,49.73
2023-01-01T09:34:22.924Z,45.73
2023-01-01T09:35:25.737Z,45.22
2023-01-01T09:36:31.091Z,47.38
2023-01-01T09:37:34.832Z,44.58
2023-01-01T09:38:38.123Z,49.33
2023-01-01T09:39:41.010Z,42.80
2023-01-01T09:41:11.480Z,47.30
2023-01-01T09:42:23.405Z,40.45
2023-01-01T09:43:32.953Z,44.03
2023-01-01T09:44:50.069Z,51.03
2023-01-01T09:45:59.072Z,44.97
2023-01-01T09:47:06.077Z,42.80
2023-01-01T09:48:13.634Z,46.97
2023-01-01T09:49:30.443Z,43.58
2023-01-01T09:50:40.955Z,42.78
2023-01-01T09:51:55.580Z,75.40
2023-01-01T09:53:07.121Z,527.35
2023-01-01T09:54:18.804Z,142.02
2023-01-01T09:55:42.069Z,68.20
2023-01-01T09:56:45.988Z,47.17
2023-01-01T09:57:48.798Z,51.47
2023-01-01T09:58:52.228Z,45.17
2023-01-01T09:59:56.273Z,46.35
2023-01-01T10:01:05.870Z,67.65
2023-01-01T10:02:34.123Z,46.90
2023-01-01T10:03:56.449Z,61.17
2023-01-01T10:05:41.391Z,59.05
2023-01-01T10:06:51.820Z,47.90
2023-01-01T10:08:10.636Z,76.22
2023-01-01T10:09:48.653Z,127.77
2023-01-01T10:11:23.771Z,55.57
2023-01-01T10:12:35.907Z,100.65
2023-01-01T10:13:43.046Z,75.07
2023-01-01T10:15:00.548Z,53.05
2023-01-01T10:16:11.777Z,41.08
2023-01-01T10:17:27.843Z,41.70
2023-01-01T10:18:34.891Z,42.45
2023-01-01T10:19:43.990Z,51.50
2023-01-01T10:21:24.729Z,53.78
2023-01-01T10:22:43.141Z,48.33
2023-01-01T10:24:00.731Z,51.33
2023-01-01T10:25:24.994Z,46.22
2023-01-01T10:26:30.423Z,50.70
2023-01-01T10:27:51.274Z,43.65
2023-01-01T10:29:03.565Z,45.67
2023-01-01T10:30:19.451Z,46.40
2023-01-01T10:31:31.208Z,46.10
2023-01-01T10:32:36.614Z,39.95
2023-01-01T10:33:40.217Z,41.97
2023-01-01T10:34:43.129Z,43.10
2023-01-01T10:35:50.258Z,41.10
2023-01-01T10:36:57.776Z,41.47
2023-01-01T10:38:02.638Z,38.85
2023-01-01T10:39:05.765Z,50.12
2023-01-01T10:40:24.267Z,39.60
2023-01-01T10:41:27.506Z,39.90
2023-01-01T10:42:30.469Z,44.55
2023-01-01T10:43:33.905Z,40.33
2023-01-01T10:44:37.408Z,40.85
2023-01-01T10:45:49.515Z,40.07
2023-01-01T10:46:58.067Z,34.93
2023-01-01T10:48:20.163Z,36.33
2023-01-01T10:49:23.194Z,39.85
2023-01-01T10:50:42.714Z,41.20
2023-01-01T10:51:48.797Z,44.75
2023-01-01T10:52:57.291Z,37.10
2023-01-01T10:54:00.352Z,40.80
2023-01-01T10:55:05.432Z,35.90
2023-01-01T10:56:11.337Z,44.25
2023-01-01T10:57:31.369Z,38.47
2023-01-01T10:58:37.407Z,33.60
2023-01-01T10:59:42.073Z,35.42
2023-01-01T11:01:01.846Z,54.90
2023-01-01T11:02:26.989Z,59.85
2023-01-01T11:03:30.649Z,53.87
2023-01-01T11:04:36.744Z,48.60
2023-01-01T11:05:39.465Z,39.70
2023-01-01T11:06:47.512Z,44.72
2023-01-01T11:07:50.958Z,97.07
2023-01-01T11:08:57.997Z,69.90
2023-01-01T11:10:05.187Z,155.50
2023-01-01T11:11:25.614Z,44.38
2023-01-01T11:13:03.532Z,38.90
2023-01-01T11:14:01.417Z,43.20
2023-01-01T11:15:06.518Z,45.30
2023-01-01T11:16:12.132Z,40.33
2023-01-01T11:17:22.952Z,36.10
2023-01-01T11:18:36.539Z,46.10
2023-01-01T11:19:48.586Z,32.97
2023-01-01T11:20:55.457Z,38.67
2023-01-01T11:22:00.314Z,51.80
2023-01-01T11:23:38.760Z,48.55
2023-01-01T11:24:41.497Z,36.95
2023-01-01T11:25:58.127Z,49.20
2023-01-01T11:27:25.168Z,69.55
2023-01-01T11:28:31.650Z,44.10
2023-01-01T11:29:34.619Z,42.33
2023-01-01T11:30:37.490Z,58.42
2023-01-01T11:31:40.529Z,35.50
2023-01-01T11:32:44.020Z,34.60
2023-01-01T11:34:02.483Z,98.40
2023-01-01T11:35:08.012Z,44.08
2023-01-01T11:36:11.326Z,36.67
2023-01-01T11:37:14.494Z,77.22
2023-01-01T11:38:29.271Z,52.72
2023-01-01T11:39:37.364Z,100.12
2023-01-01T11:40:47.475Z,93.72
2023-01-01T11:41:52.429Z,61.42
2023-01-01T11:43:02.129Z,77.18
2023-01-01T11:44:05.278Z,57.90
2023-01-01T11:45:39.540Z,68.63
2023-01-01T11:46:46.300Z,53.08
2023-01-01T11:48:17.506Z,34.92
2023-01-01T11:49:27.244Z,40.72
2023-01-01T11:50:34.921Z,32.67
2023-01-01T11:51:37.705Z,38.97
2023-01-01T11:52:49.495Z,39.38
2023-01-01T11:54:07.917Z,34.28
2023-01-01T11:55:17.583Z,35.58
2023-01-01T11:56:23.830Z,68.97
2023-01-01T11:57:27.235Z,53.63
2023-01-01T11:58:36.740Z,86.47
2023-01-01T11:59:52.692Z,41.45
2023-01-01T12:01:01.667Z,33.15
2023-01-01T12:02:11.945Z,36.10
2023-01-01T12:03:18.017Z,32.55
2023-01-01T12:04:33.086Z,32.00
2023-01-01T12:06:01.380Z,30.35
2023-01-01T12:07:06.841Z,34.47
2023-01-01T12:08:17.034Z,42.23
2023-01-01T12:09:51.085Z,31.97
2023-01-01T12:11:05.640Z,31.55
2023-01-01T12:12:31.081Z,31.70
2023-01-01T12:13:44.783Z,37.72
2023-01-01T12:15:05.103Z,35.95
2023-01-01T12:16:14.322Z,42.53
2023-01-01T12:17:26.630Z,40.33
2023-01-01T12:18:41.088Z,34.70
2023-01-01T12:19:54.078Z,35.65
2023-01-01T12:21:05.376Z,37.53
2023-01-01T12:22:17.861Z,49.73
2023-01-01T12:23:21.084Z,38.33
2023-01-01T12:24:29.921Z,30.50
2023-01-01T12:26:11.707Z,30.80
2023-01-01T12:27:24.659Z,30.92
2023-01-01T12:28:35.869Z,33.15
2023-01-01T12:30:02.997Z,39.17
2023-01-01T12:31:28.494Z,44.97
2023-01-01T12:33:08.128Z,33.42
2023-01-01T12:34:18.855Z,34.43
2023-01-01T12:35:44.367Z,32.80
2023-01-01T12:36:56.022Z,31.70
2023-01-01T12:38:13.116Z,34.90
2023-01-01T12:39:34.904Z,32.88
2023-01-01T12:41:02.183Z,30.35
2023-01-01T12:42:14.425Z,38.92
2023-01-01T12:43:43.675Z,37.85
2023-01-01T12:45:07.042Z,31.73
2023-01-01T12:46:24.947Z,32.28
2023-01-01T12:47:57.050Z,29.60
2023-01-01T12:49:15.707Z,29.27
2023-01-01T12:50:29.173Z,29.90
2023-01-01T12:52:05.728Z,33.30
2023-01-01T12:53:08.478Z,38.75
2023-01-01T12:54:35.761Z,37.88
2023-01-01T12:56:03.453Z,31.58
2023-01-01T12:57:29.506Z,29.05
2023-01-01T12:58:42.537Z,37.55
2023-01-01T12:59:50.785Z,49.22
2023-01-01T13:01:06.268Z,45.03
2023-01-01T13:02:22.078Z,33.83
2023-01-01T13:03:30.349Z,29.20
2023-01-01T13:04:33.323Z,30.70
2023-01-01T13:05:43.812Z,31.27
2023-01-01T13:07:06.606Z,31.83
2023-01-01T13:08:09.976Z,29.95
2023-01-01T13:09:29.999Z,32.95
2023-01-01T13:10:47.259Z,76.80
2023-01-01T13:12:10.882Z,91.18
2023-01-01T13:13:14.984Z,37.25
2023-01-01T13:14:18.022Z,30.37
2023-01-01T13:15:39.547Z,31.40
2023-01-01T13:16:49.464Z,28.02
2023-01-01T13:17:53.444Z,31.00
2023-01-01T13:19:02.459Z,31.02
2023-01-01T13:20:11.602Z,31.85
2023-01-01T13:21:21.463Z,35.97
2023-01-01T13:22:27.147Z,33.97
2023-01-01T13:23:30.191Z,37.47
2023-01-01T13:24:33.337Z,46.27
2023-01-01T13:25:36.569Z,44.53
2023-01-01T13:26:40.662Z,43.55
2023-01-01T13:27:56.033Z,36.72
2023-01-01T13:28:59.151Z,36.03
2023-01-01T13:30:02.045Z,35.65
2023-01-01T13:31:05.323Z,40.33
2023-01-01T13:32:09.662Z,44.85
2023-01-01T13:33:29.105Z,48.65
2023-01-01T13:34:35.689Z,48.85
2023-01-01T13:35:38.533Z,51.43
2023-01-01T13:36:41.464Z,204.90
2023-01-01T13:37:45.357Z,114.60
2023-01-01T13:38:52.489Z,79.00
2023-01-01T13:40:04.058Z,54.55
2023-01-01T13:41:26.965Z,51.55
2023-01-01T13:42:52.493Z,58.40
2023-01-01T13:44:01.243Z,41.53
2023-01-01T13:45:11.172Z,38.38
2023-01-01T13:46:15.081Z,53.38
2023-01-01T13:47:56.495Z,43.87
2023-01-01T13:49:20.837Z,61.07
2023-01-01T13:50:49.741Z,50.90
2023-01-01T13:52:07.909Z,47.40
2023-01-01T13:53:43.446Z,47.70
2023-01-01T13:55:07.374Z,42.67
2023-01-01T13:56:16.146Z,54.03
2023-01-01T13:58:07.530Z,43.58
2023-01-01T13:59:27.634Z,39.45
2023-01-01T14:00:53.966Z,38.70
2023-01-01T14:02:30.671Z,38.13
2023-01-01T14:03:41.474Z,37.10
2023-01-01T14:04:49.805Z,36.53
2023-01-01T14:06:02.668Z,33.83
2023-01-01T14:09:06.153Z,33.10
2023-01-01T14:10:16.572Z,34.08
2023-01-01T14:11:23.653Z,35.50
2023-01-01T14:12:26.650Z,33.53
2023-01-01T14:13:38.691Z,34.63
2023-01-01T14:14:43.485Z,32.47
2023-01-01T14:15:59.558Z,35.47
2023-01-01T14:17:07.408Z,34.10
2023-01-01T14:18:14.978Z,35.70
2023-01-01T14:19:17.978Z,38.83
2023-01-01T14:20:24.495Z,41.05
2023-01-01T14:21:32.122Z,41.53
2023-01-01T14:22:36.398Z,38.53
2023-01-01T14:23:50.268Z,48.28
2023-01-01T14:24:53.344Z,45.55
2023-01-01T14:25:56.713Z,53.77
2023-01-01T14:27:00.250Z,110.73
2023-01-01T14:28:03.599Z,193.32
2023-01-01T14:29:09.344Z,201.30
2023-01-01T14:30:18.961Z,75.20
2023-01-01T14:31:26.914Z,40.12
2023-01-01T14:32:33.314Z,36.55
2023-01-01T14:33:36.145Z,33.13
2023-01-01T14:34:39.430Z,38.50
2023-01-01T14:35:52.782Z,35.88
2023-01-01T14:37:01.545Z,35.83
2023-01-01T14:38:25.731Z,35.90
2023-01-01T14:39:34.908Z,37.25
2023-01-01T14:40:38.752Z,38.55
2023-01-01T14:41:43.926Z,47.90
2023-01-01T14:42:49.838Z,45.00
2023-01-01T14:43:55.589Z,57.60
2023-01-01T14:44:58.519Z,74.47
2023-01-01T14:46:06.061Z,75.30
2023-01-01T14:47:30.912Z,77.07
2023-01-01T14:48:35.381Z,68.60
2023-01-01T14:49:39.163Z,51.30
2023-01-01T14:50:45.542Z,53.83
2023-01-01T14:52:02.825Z,44.40
2023-01-01T14:53:09.208Z,60.28
2023-01-01T14:54:19.347Z,74.43
2023-01-01T14:55:22.713Z,79.22
2023-01-01T14:56:28.898Z,60.45
2023-01-01T14:57:36.159Z,46.42
2023-01-01T14:58:40.776Z,57.33
2023-01-01T14:59:49.344Z,115.10
2023-01-01T15:00:52.849Z,227.03
2023-01-01T15:02:14.839Z,191.90
2023-01-01T15:03:22.827Z,216.98
2023-01-01T15:04:28.653Z,211.55
2023-01-01T15:05:35.849Z,247.18
2023-01-01T15:06:42.438Z,316.40
2023-01-01T15:07:56.378Z,210.63
2023-01-01T15:09:01.673Z,172.55
2023-01-01T15:10:04.572Z,186.80
2023-01-01T15:11:07.782Z,164.10
2023-01-01T15:12:14.096Z,115.73
2023-01-01T15:13:23.329Z,107.03
2023-01-01T15:14:39.849Z,175.50